Time;durP1;ratioP1;P1;durP2;ratioP2;P2;SDS_P1;SDS_P2;PMS_P1;PMS_P2;Temp;Humidity;BMP_temperature;BMP_pressure;BME280_temperature;BME280_humidity;BME280_pressure;Samples;Min_cycle;Max_cycle;Signal;HPM_P1;HPM_P2
2022/09/24 00:01:20;;;;;;;;;7.00;5.00;;;;;19.66;57.02;156011.38;4993281;28;45404;-78
2022/09/24 00:03:59;;;;;;;;;6.00;6.00;;;;;19.73;56.80;156028.66;5018741;28;45420;-78
2022/09/24 00:06:26;;;;;;;;;6.00;6.00;;;;;19.71;56.44;156023.38;4994773;28;45371;-78
2022/09/24 00:08:54;;;;;;;;;7.33;7.33;;;;;19.72;56.29;156026.03;4993432;28;46188;-78
2022/09/24 00:11:20;;;;;;;;;9.67;6.33;;;;;19.60;55.79;155996.84;4994431;27;45554;-78
2022/09/24 00:13:47;;;;;;;;;8.67;6.00;;;;;19.65;55.49;156008.75;4993520;28;45564;-78
2022/09/24 00:16:15;;;;;;;;;7.00;7.00;;;;;19.54;56.55;155979.63;4969351;28;45369;-78
2022/09/24 00:18:41;;;;;;;;;7.00;5.00;;;;;19.57;55.74;155988.91;4990388;28;46488;-78
2022/09/24 00:21:23;;;;;;;;;6.33;6.33;;;;;19.65;56.00;156008.75;4976525;28;45340;-78
2022/09/24 00:23:56;;;;;;;;;8.00;6.33;;;;;19.55;56.15;155982.25;4995471;28;45421;-78
2022/09/24 00:29:07;;;;;;;;;5.67;5.67;;;;;19.59;55.45;155994.16;4990242;28;45519;-78
2022/09/24 00:31:33;;;;;;;;;6.00;6.00;;;;;19.64;55.70;156006.09;4993431;28;45426;-78
2022/09/24 00:33:59;;;;;;;;;5.00;5.00;;;;;19.63;55.82;156002.16;4993652;28;45345;-78
2022/09/24 00:36:26;;;;;;;;;7.00;6.00;;;;;19.60;55.26;155996.84;4993465;27;45246;-78
2022/09/24 00:38:53;;;;;;;;;5.00;4.67;;;;;19.68;55.38;156015.38;4985588;28;47106;-78
2022/09/24 00:41:21;;;;;;;;;10.00;6.00;;;;;19.68;55.30;156016.75;4991243;28;45429;-78
2022/09/24 00:43:48;;;;;;;;;6.00;6.00;;;;;19.66;55.42;156010.06;4990462;28;45495;-77
2022/09/24 00:46:25;;;;;;;;;5.00;5.00;;;;;19.65;55.44;156008.75;4994319;28;45686;-77
2022/09/24 00:49:02;;;;;;;;;5.33;4.00;;;;;19.53;55.63;155976.97;4972708;28;48183;-77
2022/09/24 00:51:30;;;;;;;;;8.67;5.00;;;;;19.62;57.51;156000.81;4994055;28;45415;-77
2022/09/24 00:54:02;;;;;;;;;6.33;6.33;;;;;19.60;57.80;155995.53;4994137;28;45472;-78
2022/09/24 00:56:31;;;;;;;;;9.33;7.00;;;;;19.58;57.72;155990.22;4990102;28;45457;-78
2022/09/24 00:59:01;;;;;;;;;6.00;5.33;;;;;19.49;58.14;155967.69;4991672;28;45638;-78
2022/09/24 01:01:26;;;;;;;;;7.00;6.00;;;;;19.47;59.01;155962.38;4990978;28;45573;-78
2022/09/24 01:03:55;;;;;;;;;4.67;4.67;;;;;19.55;60.41;155983.59;4994058;28;45546;-78
2022/09/24 01:06:20;;;;;;;;;9.00;6.00;;;;;19.44;60.39;155954.44;4992411;28;45540;-78
2022/09/24 01:08:46;;;;;;;;;8.33;6.67;;;;;19.47;59.22;155961.06;4994755;28;46975;-77
2022/09/24 01:11:33;;;;;;;;;7.67;6.33;;;;;19.46;60.24;155958.44;4993500;28;45326;-78
2022/09/24 01:14:25;;;;;;;;;5.67;5.67;;;;;19.42;59.98;155947.84;4975959;28;46055;-78
2022/09/24 01:17:12;;;;;;;;;4.33;4.33;;;;;19.37;61.11;155935.91;4977202;28;45503;-77
2022/09/24 01:19:59;;;;;;;;;4.33;4.33;;;;;19.33;61.37;155925.31;4987201;28;46612;-78
2022/09/24 01:22:47;;;;;;;;;7.00;7.00;;;;;19.30;61.73;155917.38;4991631;28;45350;-78
2022/09/24 01:25:58;;;;;;;;;8.67;6.67;;;;;19.26;61.81;155906.78;4995046;28;45355;-78
2022/09/24 01:29:04;;;;;;;;;8.67;5.00;;;;;19.22;62.51;155897.47;4989032;28;45443;-78
2022/09/24 01:31:37;;;;;;;;;9.00;8.00;;;;;19.18;62.57;155888.25;4987436;28;45425;-78
2022/09/24 01:34:04;;;;;;;;;4.67;4.67;;;;;19.07;62.19;155859.09;4993548;28;45443;-78
2022/09/24 01:36:34;;;;;;;;;6.67;6.00;;;;;19.09;62.91;155864.41;4986258;28;45813;-77
2022/09/24 01:39:02;;;;;;;;;4.67;4.00;;;;;19.03;63.15;155848.50;4994796;28;45451;-78
2022/09/24 01:41:27;;;;;;;;;8.00;8.00;;;;;19.06;63.84;155855.09;4981214;28;47304;-78
2022/09/24 01:43:53;;;;;;;;;6.00;6.00;;;;;19.00;64.35;155839.25;4987541;28;45460;-78
2022/09/24 01:46:21;;;;;;;;;7.67;5.33;;;;;19.03;63.50;155847.19;4993637;28;46625;-77
2022/09/24 01:48:47;;;;;;;;;6.67;6.67;;;;;18.87;64.14;155806.13;4988802;28;45362;-77
2022/09/24 01:51:26;;;;;;;;;7.33;7.33;;;;;18.90;63.87;155815.41;4990116;28;46060;-77
2022/09/24 01:54:02;;;;;;;;;7.67;7.00;;;;;18.83;64.15;155795.56;4988589;28;45403;-77
2022/09/24 01:56:44;;;;;;;;;6.00;5.00;;;;;18.88;64.13;155808.81;4991043;27;45421;-77
2022/09/24 01:59:31;;;;;;;;;7.33;7.00;;;;;18.87;64.81;155806.13;4994768;28;45401;-77
2022/09/24 02:02:05;;;;;;;;;6.33;5.67;;;;;18.85;65.12;155802.19;4989817;27;46033;-77
2022/09/24 02:04:38;;;;;;;;;7.33;7.33;;;;;18.77;65.02;155782.28;4992166;28;45442;-77
2022/09/24 02:07:12;;;;;;;;;7.00;3.67;;;;;18.66;64.86;155751.81;4992554;28;45541;-76
2022/09/24 02:09:39;;;;;;;;;8.33;7.33;;;;;18.75;65.29;155775.63;4993377;28;45424;-77
2022/09/24 02:12:28;;;;;;;;;11.33;6.67;;;;;18.72;65.16;155767.69;4992969;28;46784;-77
2022/09/24 02:15:00;;;;;;;;;6.67;6.67;;;;;18.66;66.01;155753.16;4991575;28;45432;-78
2022/09/24 02:17:31;;;;;;;;;9.67;8.67;;;;;18.60;67.06;155734.53;4992173;28;45385;-77
2022/09/24 02:20:00;;;;;;;;;6.00;6.00;;;;;18.61;67.87;155386.97;4993073;28;45368;-77
2022/09/24 02:22:26;;;;;;;;;10.00;7.67;;;;;18.65;67.37;154836.69;4974389;28;46349;-77
2022/09/24 02:24:57;;;;;;;;;6.00;6.00;;;;;18.68;68.17;154186.75;4992577;28;45590;-77
2022/09/24 02:27:29;;;;;;;;;7.67;7.67;;;;;18.59;68.53;153500.00;4991176;28;45483;-77
2022/09/24 02:29:56;;;;;;;;;9.67;8.00;;;;;18.66;68.64;153227.06;4992929;28;45436;-77
2022/09/24 02:32:24;;;;;;;;;10.00;10.00;;;;;18.47;68.20;152011.75;4975603;28;46585;-77
2022/09/24 02:34:54;;;;;;;;;7.33;7.00;;;;;18.67;68.67;152186.47;4992384;28;45456;-77
2022/09/24 02:37:22;;;;;;;;;10.33;8.33;;;;;18.68;68.90;151785.91;4992682;28;45475;-77
2022/09/24 02:39:47;;;;;;;;;8.33;8.00;;;;;18.65;68.72;152303.03;4992918;28;45593;-77
2022/09/24 02:42:14;;;;;;;;;8.33;8.33;;;;;18.64;68.93;151658.06;4992397;28;45298;-77
2022/09/24 02:44:40;;;;;;;;;9.33;9.33;;;;;18.54;68.92;150894.28;4992832;28;45440;-77
2022/09/24 02:47:05;;;;;;;;;12.33;8.67;;;;;18.58;69.54;149586.28;4974538;28;45324;-77
2022/09/24 02:49:31;;;;;;;;;11.00;8.33;;;;;18.63;68.50;149843.63;4994071;28;45659;-78
2022/09/24 02:51:56;;;;;;;;;11.67;9.00;;;;;18.57;69.19;149761.34;4991229;28;45456;-77
2022/09/24 02:54:22;;;;;;;;;8.33;8.00;;;;;18.64;68.65;149911.78;4992047;28;45379;-77
2022/09/24 02:56:48;;;;;;;;;9.33;9.33;;;;;18.54;69.32;149496.91;4975440;28;45697;-77
2022/09/24 02:59:14;;;;;;;;;9.33;9.33;;;;;18.55;68.84;149399.66;4974980;28;45438;-77
2022/09/24 03:01:39;;;;;;;;;9.67;9.67;;;;;18.60;68.95;148888.09;4992066;28;46310;-78
2022/09/24 03:04:05;;;;;;;;;12.33;10.00;;;;;18.54;69.04;148760.75;4992522;28;45416;-77
2022/09/24 03:06:31;;;;;;;;;10.67;8.00;;;;;18.58;69.08;147834.31;4992147;28;45509;-77
2022/09/24 03:08:56;;;;;;;;;9.67;9.00;;;;;18.60;69.96;146762.09;4993602;28;45535;-77
2022/09/24 03:11:22;;;;;;;;;10.67;8.33;;;;;18.62;69.57;146517.44;4973291;28;46637;-77
2022/09/24 03:13:48;;;;;;;;;9.33;9.00;;;;;18.60;70.24;145746.66;4973363;28;46100;-78
2022/09/24 03:16:15;;;;;;;;;11.00;11.00;;;;;18.62;70.21;145383.16;4991398;28;45429;-78
2022/09/24 03:18:40;;;;;;;;;12.33;9.33;;;;;18.61;70.34;145151.41;4972621;28;45453;-77
2022/09/24 03:21:09;;;;;;;;;12.33;12.00;;;;;18.52;70.12;145718.66;4992192;28;46104;-78
2022/09/24 03:23:35;;;;;;;;;10.33;10.33;;;;;18.55;70.46;144372.66;4996267;28;45270;-77
2022/09/24 03:26:00;;;;;;;;;8.67;8.33;;;;;18.48;70.01;144744.06;4994951;28;45625;-77
2022/09/24 03:28:26;;;;;;;;;9.00;9.00;;;;;18.55;69.69;145121.47;4995254;28;45275;-78
2022/09/24 03:31:00;;;;;;;;;7.33;7.33;;;;;18.59;70.07;144280.25;4994152;27;46285;-78
2022/09/24 03:33:32;;;;;;;;;11.33;9.33;;;;;18.46;69.84;144602.75;4994708;28;45350;-77
2022/09/24 03:36:03;;;;;;;;;9.33;8.00;;;;;18.50;69.94;144656.22;4994264;28;45407;-78
2022/09/24 03:38:29;;;;;;;;;11.33;9.67;;;;;18.46;69.97;144482.69;4994655;28;45463;-78
2022/09/24 03:40:56;;;;;;;;;7.33;7.33;;;;;18.55;69.17;145903.47;4995796;28;45492;-78
2022/09/24 03:43:22;;;;;;;;;9.00;8.67;;;;;18.42;68.88;146066.19;4995770;28;45385;-78
2022/09/24 03:45:48;;;;;;;;;7.33;7.33;;;;;18.55;68.81;146344.16;4995896;28;45382;-78
2022/09/24 03:48:18;;;;;;;;;6.00;5.33;;;;;18.48;69.21;146505.63;4996319;28;45475;-78
2022/09/24 03:50:44;;;;;;;;;11.00;9.33;;;;;18.54;68.50;147152.41;4995937;28;45455;-77
2022/09/24 03:53:10;;;;;;;;;8.00;7.33;;;;;18.51;68.62;146915.56;4995023;28;45385;-77
2022/09/24 03:55:44;;;;;;;;;7.33;7.33;;;;;18.57;68.66;146852.91;4995911;28;45375;-78
2022/09/24 03:58:10;;;;;;;;;9.00;8.33;;;;;18.45;68.61;146996.16;4995341;28;45406;-77
2022/09/24 04:00:35;;;;;;;;;10.33;6.67;;;;;18.57;68.92;146689.09;4978059;28;46184;-77
2022/09/24 04:03:01;;;;;;;;;7.33;6.00;;;;;18.57;68.55;146255.09;4992794;28;45676;-77
2022/09/24 04:05:29;;;;;;;;;8.00;6.67;;;;;18.57;68.17;147093.16;4977402;28;45534;-77
2022/09/24 04:07:55;;;;;;;;;10.00;7.33;;;;;18.56;68.25;147575.13;4978479;28;45507;-78
2022/09/24 04:10:21;;;;;;;;;7.67;6.33;;;;;18.43;68.06;147356.91;4994433;28;45357;-77
2022/09/24 04:12:47;;;;;;;;;8.67;6.00;;;;;18.53;68.66;147005.22;4975653;28;45453;-78
2022/09/24 04:15:12;;;;;;;;;9.33;7.67;;;;;18.53;68.33;146872.94;4976797;28;45523;-77
2022/09/24 04:17:38;;;;;;;;;6.00;6.00;;;;;18.50;68.77;146406.91;4991415;28;45324;-77
2022/09/24 04:20:03;;;;;;;;;7.67;7.67;;;;;18.53;68.72;146535.69;4991819;28;46293;-77
2022/09/24 04:22:28;;;;;;;;;6.00;6.00;;;;;18.53;68.95;145981.63;4994168;28;45447;-77
2022/09/24 04:24:55;;;;;;;;;8.33;7.33;;;;;18.54;68.50;146472.69;4994220;28;45459;-77
2022/09/24 04:27:21;;;;;;;;;7.67;6.00;;;;;18.53;67.94;146826.53;4994720;28;45520;-77
2022/09/24 04:29:46;;;;;;;;;6.67;3.67;;;;;18.51;68.12;147128.50;4995420;28;45373;-77
2022/09/24 04:32:11;;;;;;;;;6.67;5.33;;;;;18.51;68.90;146214.09;4994082;28;45486;-77
2022/09/24 04:34:37;;;;;;;;;8.00;7.67;;;;;18.47;68.38;146372.09;4993301;28;45463;-77
2022/09/24 04:37:02;;;;;;;;;8.67;6.33;;;;;18.51;68.91;146181.34;4993650;28;45483;-77
2022/09/24 04:39:27;;;;;;;;;8.00;7.67;;;;;18.48;68.88;146159.00;4994261;28;46000;-78
2022/09/24 04:41:53;;;;;;;;;5.67;4.00;;;;;18.51;68.37;146311.09;4994002;28;45463;-77
2022/09/24 04:44:19;;;;;;;;;8.33;8.33;;;;;18.44;68.35;146576.03;4976752;28;45343;-77
2022/09/24 04:46:44;;;;;;;;;6.67;4.00;;;;;18.41;68.24;146466.34;4993160;28;46032;-77
2022/09/24 04:49:10;;;;;;;;;8.33;7.33;;;;;18.49;68.51;146176.34;4990352;28;45413;-77
2022/09/24 04:51:36;;;;;;;;;9.67;8.00;;;;;18.48;68.61;145487.72;4992784;28;45602;-78
2022/09/24 04:54:02;;;;;;;;;5.00;5.00;;;;;18.52;67.42;146671.19;4994154;28;45396;-77
2022/09/24 04:56:28;;;;;;;;;8.00;6.33;;;;;18.50;67.09;147111.13;4992438;28;45391;-77
2022/09/24 04:58:53;;;;;;;;;8.00;6.67;;;;;18.46;66.98;147496.94;4992736;28;46341;-78
2022/09/24 05:01:19;;;;;;;;;9.33;7.00;;;;;18.20;67.12;147364.78;4992016;28;45355;-77
2022/09/24 05:03:45;;;;;;;;;8.00;6.67;;;;;18.46;67.29;147084.75;4995377;28;45390;-78
2022/09/24 05:06:11;;;;;;;;;9.67;8.00;;;;;18.34;67.56;146989.00;4993963;28;45472;-77
2022/09/24 05:08:36;;;;;;;;;7.00;7.00;;;;;18.44;67.40;146915.97;4975955;28;47174;-77
2022/09/24 05:11:02;;;;;;;;;9.33;8.00;;;;;18.44;67.79;146810.75;4974697;28;45479;-77
2022/09/24 05:13:27;;;;;;;;;10.67;8.33;;;;;18.41;67.26;146560.38;4994255;28;45532;-78
2022/09/24 05:15:53;;;;;;;;;7.67;7.67;;;;;18.33;67.85;146446.19;4993837;28;45401;-77
2022/09/24 05:18:18;;;;;;;;;8.67;7.33;;;;;18.35;67.93;146681.84;4976279;28;48039;-78
2022/09/24 05:20:44;;;;;;;;;6.33;6.33;;;;;18.44;67.82;146316.75;4990219;28;45408;-77
2022/09/24 05:23:09;;;;;;;;;10.00;9.00;;;;;18.32;68.05;145963.47;4992751;28;45363;-77
2022/09/24 05:27:07;;;;;;;;;9.67;9.67;;;;;18.41;67.76;146035.19;4994046;28;45337;-77
2022/09/24 05:28:20;;;;;;;;;7.67;7.67;;;;;18.38;67.89;145652.47;4992506;28;45565;-78
2022/09/24 05:30:46;;;;;;;;;9.67;7.33;;;;;18.47;67.56;145622.91;4992385;28;45462;-77
2022/09/24 05:33:12;;;;;;;;;9.00;7.67;;;;;18.44;67.98;144082.25;4992717;28;45345;-77
2022/09/24 05:35:37;;;;;;;;;9.67;8.67;;;;;18.49;67.80;145649.66;4976251;28;45471;-78
2022/09/24 05:38:03;;;;;;;;;6.00;6.00;;;;;18.38;67.58;145502.41;4993437;28;45348;-77
2022/09/24 05:43:12;;;;;;;;;8.00;8.00;;;;;18.42;68.50;144209.78;4992170;28;45266;-77
2022/09/24 05:45:38;;;;;;;;;9.00;7.67;;;;;18.35;68.86;143531.16;4994028;28;45465;-78
2022/09/24 05:48:04;;;;;;;;;7.33;7.33;;;;;18.44;68.38;144202.28;4993556;28;45451;-78
2022/09/24 05:50:33;;;;;;;;;13.33;9.33;;;;;18.45;68.62;143229.81;4990637;28;45825;-78
2022/09/24 05:53:02;;;;;;;;;10.33;8.00;;;;;18.44;68.38;142995.63;4991460;28;45519;-78
2022/09/24 05:55:28;;;;;;;;;10.33;8.67;;;;;18.20;68.55;142157.47;4992755;28;45610;-78
2022/09/24 05:57:54;;;;;;;;;7.67;6.67;;;;;18.43;68.76;142235.22;4992797;28;46100;-77
2022/09/24 06:00:19;;;;;;;;;8.67;7.67;;;;;18.34;68.68;143036.44;4992066;27;46244;-77
2022/09/24 06:02:45;;;;;;;;;5.00;5.00;;;;;18.20;68.38;143133.22;4993443;28;45527;-77
2022/09/24 06:05:11;;;;;;;;;8.00;8.00;;;;;18.38;68.73;141752.75;4994059;28;45458;-77
2022/09/24 06:07:36;;;;;;;;;11.33;8.67;;;;;18.41;69.50;141421.97;4993009;28;46056;-77
2022/09/24 06:10:04;;;;;;;;;10.67;8.00;;;;;18.42;70.17;139542.84;4992923;28;45631;-78
2022/09/24 06:12:29;;;;;;;;;11.00;8.67;;;;;18.46;69.77;139572.59;4990758;27;45499;-78
2022/09/24 06:14:55;;;;;;;;;8.33;8.33;;;;;18.46;69.88;139223.84;4992040;28;45418;-77
2022/09/24 06:17:20;;;;;;;;;11.33;9.33;;;;;18.40;69.83;138809.19;4992867;27;45401;-77
2022/09/24 06:19:46;;;;;;;;;8.67;8.67;;;;;18.42;70.37;138862.94;4974938;28;45488;-77
2022/09/24 06:22:12;;;;;;;;;9.00;8.00;;;;;18.42;70.33;137836.09;4989468;28;45466;-78
2022/09/24 06:24:38;;;;;;;;;8.00;7.67;;;;;18.34;70.90;136511.69;4991262;28;45665;-79
2022/09/24 06:27:03;;;;;;;;;9.33;9.33;;;;;18.42;70.41;137061.56;4970350;28;47009;-78
2022/09/24 06:29:29;;;;;;;;;11.67;10.33;;;;;18.41;70.51;135565.84;4992104;28;45448;-78
2022/09/24 06:31:54;;;;;;;;;9.33;7.33;;;;;18.35;70.20;136673.44;4972196;28;45607;-78
2022/09/24 06:34:19;;;;;;;;;8.67;7.00;;;;;18.34;70.67;136507.81;4985306;28;45417;-77
2022/09/24 06:36:45;;;;;;;;;9.00;8.33;;;;;18.32;70.66;136870.66;4987613;28;47074;-77
2022/09/24 06:39:10;;;;;;;;;11.00;9.00;;;;;18.34;70.64;136535.03;4973872;28;45580;-78
2022/09/24 06:41:35;;;;;;;;;10.33;10.00;;;;;18.24;70.70;135025.97;4991381;28;45397;-77
2022/09/24 06:44:01;;;;;;;;;10.67;9.67;;;;;18.35;70.99;134825.41;4987508;28;45445;-77
2022/09/24 06:46:26;;;;;;;;;12.00;9.33;;;;;18.35;70.33;135026.78;4974157;28;47681;-76
2022/09/24 06:48:54;;;;;;;;;8.33;8.33;;;;;18.33;70.43;135381.38;4989513;28;45437;-75
2022/09/24 06:51:20;;;;;;;;;11.00;8.67;;;;;18.31;70.73;134783.63;4989648;28;45348;-75
2022/09/24 06:53:50;;;;;;;;;2.00;2.00;;;;;18.34;71.49;131844.66;4976886;28;45291;-75
2022/09/24 06:56:15;;;;;;;;;8.33;7.33;;;;;18.40;70.46;134199.00;4990555;28;46386;-77
2022/09/24 06:58:40;;;;;;;;;8.33;6.00;;;;;18.27;71.37;132925.88;4989559;28;45417;-86
2022/09/24 07:01:06;;;;;;;;;7.67;7.33;;;;;18.37;70.58;132842.91;4986377;28;45557;-87
2022/09/24 07:03:32;;;;;;;;;7.33;7.33;;;;;18.37;70.86;132890.25;4990074;28;45446;-86
2022/09/24 07:06:05;;;;;;;;;8.00;5.33;;;;;18.43;70.95;133605.72;4994465;28;45477;-86
2022/09/24 07:08:31;;;;;;;;;8.00;6.00;;;;;18.45;69.69;135950.75;4988308;27;45458;-86
2022/09/24 07:10:56;;;;;;;;;7.33;7.33;;;;;18.46;69.99;135353.03;4977091;28;45387;-87
2022/09/24 07:13:22;;;;;;;;;7.33;7.33;;;;;18.51;70.61;133919.34;4992783;28;45534;-86
2022/09/24 07:15:49;;;;;;;;;7.00;5.67;;;;;18.54;70.36;134000.81;4989249;28;47129;-86
2022/09/24 07:18:15;;;;;;;;;1.67;0.00;;;;;18.53;70.26;133625.69;4990622;28;45432;-86
2022/09/24 07:20:41;;;;;;;;;7.00;6.33;;;;;18.59;70.95;132615.13;4972870;28;45524;-85
2022/09/24 07:23:09;;;;;;;;;6.00;6.00;;;;;18.63;70.29;132726.41;4976427;28;45334;-78
2022/09/24 07:25:37;;;;;;;;;7.33;7.00;;;;;18.60;70.55;132844.78;4975713;28;46414;-77
2022/09/24 07:28:08;;;;;;;;;8.00;7.00;;;;;18.66;70.67;132508.47;4993055;28;45829;-76
2022/09/24 07:30:35;;;;;;;;;12.00;9.33;;;;;18.66;69.89;134119.56;4989503;28;45491;-77
2022/09/24 07:33:00;;;;;;;;;8.67;7.67;;;;;18.69;69.99;134157.94;4991745;28;45678;-77
2022/09/24 07:35:27;;;;;;;;;11.00;7.00;;;;;18.60;69.55;135635.75;4984755;28;46115;-78
2022/09/24 07:38:03;;;;;;;;;5.33;5.33;;;;;18.68;68.94;136126.88;4975285;28;46634;-77
2022/09/24 07:40:30;;;;;;;;;10.67;8.00;;;;;18.70;68.51;137271.25;4987639;27;45656;-76
2022/09/24 07:42:56;;;;;;;;;7.00;7.00;;;;;18.54;68.05;137254.16;4995839;28;45707;-82
2022/09/24 07:45:23;;;;;;;;;7.67;7.00;;;;;18.69;67.88;137307.06;4994292;28;46815;-80
2022/09/24 07:48:03;;;;;;;;;7.00;6.00;;;;;18.65;67.80;137539.00;4977332;28;45477;-78
2022/09/24 07:50:31;;;;;;;;;7.33;5.00;;;;;18.72;67.84;137291.09;4963061;28;45486;-78
2022/09/24 07:52:57;;;;;;;;;8.33;6.67;;;;;18.70;67.71;137995.94;4987579;28;45507;-79
2022/09/24 07:55:24;;;;;;;;;4.00;4.00;;;;;18.70;67.32;138513.69;4999618;27;45612;-78
2022/09/24 07:57:52;;;;;;;;;5.00;5.00;;;;;18.69;66.86;139070.00;4974629;28;45614;-77
2022/09/24 08:00:20;;;;;;;;;10.00;4.00;;;;;18.63;68.01;138073.72;4992223;27;45422;-78
2022/09/24 08:02:46;;;;;;;;;5.00;5.00;;;;;18.72;69.26;135937.34;4992942;28;45455;-77
2022/09/24 08:05:14;;;;;;;;;4.67;4.67;;;;;18.70;68.48;137516.44;4990117;27;45432;-78
2022/09/24 08:07:39;;;;;;;;;4.00;4.00;;;;;18.69;68.59;137763.59;4992453;28;45626;-78
2022/09/24 08:10:05;;;;;;;;;5.67;5.00;;;;;18.74;67.63;137121.41;4995293;28;45479;-77
2022/09/24 08:12:30;;;;;;;;;5.67;5.67;;;;;18.70;68.72;137550.69;4973669;28;45506;-77
2022/09/24 08:14:56;;;;;;;;;6.00;5.00;;;;;18.77;67.80;137646.13;4999706;28;48131;-77
2022/09/24 08:17:21;;;;;;;;;7.33;4.00;;;;;18.77;68.54;137897.97;4978532;28;45533;-77
2022/09/24 08:19:47;;;;;;;;;7.00;6.00;;;;;18.78;68.02;137651.22;4975550;28;45475;-77
2022/09/24 08:22:13;;;;;;;;;6.33;4.33;;;;;18.77;68.78;136947.06;4984980;28;45379;-78
2022/09/24 08:24:39;;;;;;;;;7.00;6.00;;;;;18.80;68.32;136288.22;4969483;28;48469;-78
2022/09/24 08:27:05;;;;;;;;;5.33;5.33;;;;;18.74;67.10;137776.47;4990176;28;45526;-77
2022/09/24 08:29:30;;;;;;;;;7.00;4.00;;;;;18.85;68.32;137806.56;4985379;28;45430;-72
2022/09/24 08:31:55;;;;;;;;;6.33;5.00;;;;;18.91;68.54;136849.28;4957677;28;45532;-74
2022/09/24 08:34:21;;;;;;;;;5.00;5.00;;;;;18.95;68.24;136665.13;4967260;28;47127;-75
2022/09/24 08:36:47;;;;;;;;;5.00;5.00;;;;;18.97;68.81;136301.94;4994555;28;45483;-77
2022/09/24 08:39:14;;;;;;;;;5.67;5.00;;;;;19.09;68.60;135475.66;4960574;28;45590;-79
2022/09/24 08:41:59;;;;;;;;;6.33;5.00;;;;;19.12;67.91;135985.09;4973682;28;45620;-75
2022/09/24 08:47:42;;;;;;;;;8.00;7.33;;;;;19.10;69.13;134712.34;4989541;28;45541;-90
2022/09/24 08:50:38;;;;;;;;;7.00;5.00;;;;;19.33;69.49;133844.00;4993283;28;45515;-89
2022/09/24 08:53:25;;;;;;;;;9.67;8.67;;;;;19.43;69.66;133598.53;4968627;28;45532;-83
2022/09/24 08:55:56;;;;;;;;;6.33;5.67;;;;;19.37;69.00;134018.19;4970132;28;46717;-77
2022/09/24 08:58:30;;;;;;;;;9.00;8.67;;;;;19.53;68.30;134227.97;4991214;28;45500;-81
2022/09/24 09:01:11;;;;;;;;;10.00;7.33;;;;;19.61;68.39;133886.34;4988744;28;45583;-83
2022/09/24 09:03:52;;;;;;;;;26.67;19.33;;;;;19.66;68.23;135741.03;4985251;28;45848;-79
2022/09/24 09:06:55;;;;;;;;;73.75;57.50;;;;;19.73;66.90;134137.28;4982693;28;47329;-83
2022/09/24 09:09:24;;;;;;;;;12.33;10.00;;;;;19.79;68.07;134895.47;4989782;28;45563;-75
2022/09/24 09:11:56;;;;;;;;;8.00;8.00;;;;;19.79;68.04;135100.03;4993664;28;45487;-78
2022/09/24 09:14:39;;;;;;;;;7.00;5.33;;;;;19.83;67.19;136032.88;4991320;28;46547;-76
2022/09/24 09:17:23;;;;;;;;;10.33;7.33;;;;;19.99;68.03;134347.03;4985040;28;45606;-77
2022/09/24 09:19:55;;;;;;;;;6.00;6.00;;;;;20.06;68.56;134875.94;4986786;28;45444;-78
2022/09/24 09:22:26;;;;;;;;;7.00;7.00;;;;;20.26;65.05;135270.03;4990750;28;45539;-76
2022/09/24 09:24:54;;;;;;;;;7.67;6.00;;;;;20.34;65.16;137137.03;4971601;28;45515;-82
2022/09/24 09:27:20;;;;;;;;;5.67;5.67;;;;;20.32;64.69;137228.00;4986506;28;45503;-82
2022/09/24 09:29:56;;;;;;;;;7.33;7.00;;;;;20.42;65.18;137330.50;4983407;28;45475;-78
2022/09/24 09:32:33;;;;;;;;;9.33;7.00;;;;;20.38;64.18;137533.09;4985506;28;45451;-80
2022/09/24 09:35:14;;;;;;;;;10.00;8.00;;;;;20.38;64.28;136609.88;4981353;28;45650;-79
2022/09/24 09:37:56;;;;;;;;;10.00;10.00;;;;;20.19;64.67;139151.72;4985038;28;46378;-80
2022/09/24 09:40:33;;;;;;;;;5.33;5.33;;;;;20.27;63.67;137901.84;4986576;28;45583;-80
2022/09/24 09:43:08;;;;;;;;;8.33;7.00;;;;;20.18;63.89;138331.41;4970319;28;47055;-80
2022/09/24 09:45:46;;;;;;;;;6.00;6.00;;;;;20.22;64.23;140343.53;4994096;28;45549;-76
2022/09/24 09:48:13;;;;;;;;;10.33;7.33;;;;;20.12;63.88;139480.94;4984324;28;45586;-76
2022/09/24 09:50:49;;;;;;;;;5.00;4.33;;;;;20.29;65.08;139927.22;4987638;28;45536;-76
2022/09/24 09:53:30;;;;;;;;;8.67;7.00;;;;;20.33;64.31;136770.34;4988965;28;45482;-76
2022/09/24 09:56:03;;;;;;;;;12.67;8.00;;;;;20.34;63.33;137925.28;4992326;28;45448;-75
2022/09/24 09:58:32;;;;;;;;;4.67;4.67;;;;;20.35;63.51;138352.25;4991310;28;47410;-76
2022/09/24 10:01:08;;;;;;;;;37.00;28.33;;;;;20.40;64.28;139314.97;4958154;28;46490;-74
2022/09/24 10:03:48;;;;;;;;;77.25;64.00;;;;;20.46;64.08;138128.25;4969176;28;46617;-74
2022/09/24 10:06:29;;;;;;;;;44.67;36.67;;;;;20.44;63.58;138889.88;4985135;28;45579;-74
2022/09/24 10:09:08;;;;;;;;;25.33;21.67;;;;;20.53;63.01;138908.72;4983849;28;46441;-74
2022/09/24 10:11:33;;;;;;;;;10.33;7.67;;;;;20.55;63.24;140613.94;4989397;28;45359;-75
2022/09/24 10:14:09;;;;;;;;;10.67;10.00;;;;;20.51;63.06;139816.97;4983270;28;45641;-78
2022/09/24 10:16:39;;;;;;;;;9.67;8.33;;;;;20.56;63.41;139913.69;4987488;28;45580;-77
2022/09/24 10:19:19;;;;;;;;;9.67;8.33;;;;;20.60;63.48;138675.00;4986410;28;45495;-78
2022/09/24 10:21:45;;;;;;;;;12.00;10.00;;;;;20.72;63.72;139633.25;4991157;28;45424;-79
2022/09/24 10:24:21;;;;;;;;;11.33;9.00;;;;;20.65;63.19;137639.91;4986006;28;45422;-78
2022/09/24 10:26:47;;;;;;;;;11.33;10.67;;;;;20.58;62.95;138789.34;4989753;28;45381;-78
2022/09/24 10:32:22;;;;;;;;;13.67;10.67;;;;;20.67;63.33;141766.84;4990052;28;45539;-79
2022/09/24 10:34:55;;;;;;;;;8.00;7.33;;;;;20.68;62.48;139569.13;4994213;28;45528;-79
2022/09/24 10:37:20;;;;;;;;;10.33;8.00;;;;;20.70;62.17;137941.69;4988099;28;45534;-78
2022/09/24 10:39:59;;;;;;;;;9.33;8.67;;;;;20.71;62.54;140571.66;4966958;28;46429;-78
2022/09/24 10:42:28;;;;;;;;;10.33;8.00;;;;;20.69;61.97;138622.75;4995606;28;45512;-79
2022/09/24 10:45:00;;;;;;;;;12.00;10.00;;;;;20.79;61.92;138873.19;4993535;28;45397;-79
2022/09/24 10:47:41;;;;;;;;;14.33;11.33;;;;;20.84;61.24;136703.41;4988873;28;45512;-78
2022/09/24 10:50:29;;;;;;;;;11.00;10.00;;;;;20.83;61.60;139582.75;4975992;28;45686;-80
2022/09/24 10:53:07;;;;;;;;;11.33;11.33;;;;;20.74;60.96;138292.78;4991838;28;45399;-79
2022/09/24 10:55:40;;;;;;;;;12.00;9.33;;;;;20.90;61.23;139031.97;4989690;28;45604;-79
2022/09/24 10:58:40;;;;;;;;;9.33;9.33;;;;;20.80;60.66;140011.69;4991344;27;45486;-78
2022/09/24 11:01:52;;;;;;;;;12.00;11.33;;;;;21.02;60.65;140272.28;4986024;28;46125;-78
2022/09/24 11:04:41;;;;;;;;;9.67;9.67;;;;;21.22;59.93;130643.19;4990951;28;45632;-80
2022/09/24 11:07:28;;;;;;;;;13.67;11.67;;;;;21.74;59.72;129000.97;4991170;28;45579;-82
2022/09/24 11:09:58;;;;;;;;;12.00;10.67;;;;;22.40;58.69;93303.34;4992689;28;45532;-82
2022/09/24 11:12:34;;;;;;;;;12.00;11.00;;;;;23.01;57.05;19611.94;4997460;28;45658;-81
2022/09/24 11:15:18;;;;;;;;;11.33;11.00;;;;;23.48;55.22;-19832.09;4996170;28;45553;-86
2022/09/24 11:18:27;;;;;;;;;13.00;11.33;;;;;23.80;54.01;-19840.47;4991899;28;45565;-83
2022/09/24 11:21:14;;;;;;;;;15.33;10.00;;;;;24.25;52.66;-19852.16;4935361;28;45547;-91
2022/09/24 11:23:54;;;;;;;;;9.00;8.67;;;;;24.60;52.13;-19861.31;4936279;28;46389;-81
2022/09/24 11:26:34;;;;;;;;;11.00;11.00;;;;;25.13;50.36;-19874.94;4935519;28;45413;-78
2022/09/24 11:29:00;;;;;;;;;16.33;13.00;;;;;25.36;49.90;-19880.91;4909137;28;45434;-80
2022/09/24 11:31:33;;;;;;;;;12.33;8.67;;;;;25.63;48.86;-19887.78;4937987;28;45369;-75
2022/09/24 11:34:16;;;;;;;;;9.33;8.33;;;;;25.86;48.27;-19893.75;4936325;28;46497;-76
2022/09/24 11:37:39;;;;;;;;;15.33;12.33;;;;;26.09;48.10;-19899.72;4980867;28;45947;-74
2022/09/24 11:40:16;;;;;;;;;10.67;10.00;;;;;26.49;47.30;-19910.16;4936474;28;45630;-76
2022/09/24 11:42:54;;;;;;;;;15.67;12.33;;;;;26.62;46.75;-19913.31;4939063;28;45530;-76
2022/09/24 11:45:37;;;;;;;;;10.33;10.33;;;;;26.99;46.14;-19922.84;4940218;28;45526;-76
2022/09/24 11:48:12;;;;;;;;;13.00;10.67;;;;;27.31;44.72;-19931.16;4941280;28;45479;-73
2022/09/24 11:51:05;;;;;;;;;13.67;9.00;;;;;27.33;44.58;-19931.81;4951373;28;45530;-72